createdAt,value
2018-06-29T00:00:02.886Z,19.80
2018-06-29T00:02:31.242Z,19.80
2018-06-29T00:04:59.627Z,19.80
2018-06-29T00:07:28.075Z,19.80
2018-06-29T00:09:56.941Z,19.80
2018-06-29T00:12:25.277Z,19.70
2018-06-29T00:14:53.690Z,19.70
2018-06-29T00:17:22.186Z,19.70
2018-06-29T00:19:50.577Z,19.70
2018-06-29T00:22:19.130Z,19.80
2018-06-29T00:24:47.561Z,19.70
2018-06-29T00:27:17.010Z,19.70
2018-06-29T00:29:45.439Z,19.70
2018-06-29T00:32:13.896Z,19.70
2018-06-29T00:37:10.286Z,19.60
2018-06-29T00:39:38.675Z,19.60
2018-06-29T00:42:07.259Z,19.50
2018-06-29T00:44:35.652Z,19.50
2018-06-29T00:47:04.130Z,19.50
2018-06-29T00:49:32.624Z,19.50
2018-06-29T00:52:01.048Z,19.40
2018-06-29T00:54:29.540Z,19.40
2018-06-29T00:56:57.966Z,19.40
2018-06-29T00:59:26.425Z,19.30
2018-06-29T01:01:54.886Z,19.30
2018-06-29T01:04:23.333Z,19.30
2018-06-29T01:06:51.767Z,19.30
2018-06-29T01:09:20.295Z,19.30
2018-06-29T01:11:48.704Z,19.30
2018-06-29T01:14:17.124Z,19.30
2018-06-29T01:16:45.472Z,19.30
2018-06-29T01:19:13.882Z,19.30
2018-06-29T01:21:42.296Z,19.30
2018-06-29T01:24:10.665Z,19.30
2018-06-29T01:26:39.094Z,19.30
2018-06-29T01:29:07.661Z,19.30
2018-06-29T01:31:36.122Z,19.20
2018-06-29T01:34:04.584Z,19.20
2018-06-29T01:36:33.041Z,19.10
2018-06-29T01:39:01.442Z,19.00
2018-06-29T01:41:29.916Z,19.00
2018-06-29T01:43:58.276Z,19.00
2018-06-29T01:46:26.645Z,19.00
2018-06-29T01:48:55.696Z,18.90
2018-06-29T01:51:24.183Z,18.90
2018-06-29T01:53:52.583Z,18.90
2018-06-29T01:56:20.998Z,18.80
2018-06-29T01:58:49.395Z,18.80
2018-06-29T02:01:17.863Z,18.80
2018-06-29T02:03:46.230Z,18.60
2018-06-29T02:06:14.771Z,18.60
2018-06-29T02:08:43.378Z,18.70
2018-06-29T02:11:11.837Z,18.60
2018-06-29T02:13:40.328Z,18.60
2018-06-29T02:16:08.738Z,18.60
2018-06-29T02:18:37.367Z,18.60
2018-06-29T02:21:05.833Z,18.60
2018-06-29T02:23:34.299Z,18.50
2018-06-29T02:26:02.768Z,18.40
2018-06-29T02:28:31.175Z,18.40
2018-06-29T02:30:59.552Z,18.30
2018-06-29T02:33:28.006Z,18.30
2018-06-29T02:38:24.521Z,18.10
2018-06-29T02:40:52.891Z,18.10
2018-06-29T02:43:21.254Z,17.80
2018-06-29T02:45:49.628Z,17.80
2018-06-29T02:48:18.137Z,17.70
2018-06-29T02:50:46.549Z,17.70
2018-06-29T02:53:15.063Z,17.50
2018-06-29T02:55:43.522Z,17.50
2018-06-29T02:58:11.907Z,17.30
2018-06-29T03:00:40.247Z,17.30
2018-06-29T03:03:08.668Z,17.20
2018-06-29T03:05:37.047Z,17.20
2018-06-29T03:08:05.398Z,17.10
2018-06-29T03:10:33.833Z,17.10
2018-06-29T03:13:02.286Z,17.00
2018-06-29T03:15:30.665Z,17.00
2018-06-29T03:17:59.003Z,17.10
2018-06-29T03:20:27.492Z,17.10
2018-06-29T03:22:55.816Z,17.30
2018-06-29T03:25:24.171Z,17.20
2018-06-29T03:27:53.035Z,17.30
2018-06-29T03:30:21.475Z,17.40
2018-06-29T03:32:49.800Z,17.50
2018-06-29T03:35:18.498Z,17.50
2018-06-29T03:37:46.915Z,17.60
2018-06-29T03:40:15.468Z,17.60
2018-06-29T03:42:44.012Z,17.70
2018-06-29T03:45:12.364Z,17.80
2018-06-29T03:47:40.703Z,17.90
2018-06-29T03:50:09.220Z,17.90
2018-06-29T03:52:37.625Z,17.90
2018-06-29T03:55:06.132Z,17.90
2018-06-29T03:57:34.581Z,17.60
2018-06-29T04:00:02.955Z,17.70
2018-06-29T04:02:31.241Z,17.70
2018-06-29T04:04:59.568Z,17.80
2018-06-29T04:07:28.046Z,17.90
2018-06-29T04:09:56.430Z,17.90
2018-06-29T04:12:24.765Z,18.00
2018-06-29T04:14:53.179Z,18.00
2018-06-29T04:17:21.602Z,18.00
2018-06-29T04:19:49.974Z,17.80
2018-06-29T04:22:18.464Z,17.80
2018-06-29T04:24:46.824Z,17.70
2018-06-29T04:27:15.371Z,17.60
2018-06-29T04:29:43.734Z,17.60
2018-06-29T04:32:12.128Z,17.50
2018-06-29T04:34:41.103Z,17.40
2018-06-29T04:37:09.697Z,17.30
2018-06-29T04:39:38.070Z,17.40
2018-06-29T04:42:06.551Z,17.40
2018-06-29T04:44:34.916Z,17.30
2018-06-29T04:47:03.294Z,17.20
2018-06-29T04:49:31.695Z,17.20
2018-06-29T04:52:00.077Z,17.20
2018-06-29T04:54:28.589Z,17.20
2018-06-29T04:56:57.424Z,17.20
2018-06-29T04:59:25.818Z,17.30
2018-06-29T05:01:54.291Z,17.30
2018-06-29T05:04:22.766Z,17.40
2018-06-29T05:06:51.196Z,17.50
2018-06-29T05:09:19.626Z,17.60
2018-06-29T05:11:48.074Z,17.70
2018-06-29T05:14:16.643Z,17.70
2018-06-29T05:16:45.181Z,17.90
2018-06-29T05:19:13.619Z,18.10
2018-06-29T05:21:42.031Z,18.30
2018-06-29T05:24:10.393Z,18.40
2018-06-29T05:26:38.875Z,18.40
2018-06-29T05:29:07.297Z,18.50
2018-06-29T05:31:35.676Z,18.60
2018-06-29T05:34:04.024Z,18.70
2018-06-29T05:36:32.514Z,18.90
2018-06-29T05:39:01.035Z,18.90
2018-06-29T05:41:29.492Z,18.90
2018-06-29T05:43:57.763Z,19.00
2018-06-29T05:46:26.186Z,19.20
2018-06-29T05:48:54.570Z,19.30
2018-06-29T05:51:22.977Z,19.30
2018-06-29T05:53:51.390Z,19.40
2018-06-29T05:56:19.797Z,19.40
2018-06-29T05:58:48.241Z,19.50
2018-06-29T06:01:16.638Z,19.40
2018-06-29T06:03:45.104Z,19.50
2018-06-29T06:06:13.687Z,19.50
2018-06-29T06:08:42.142Z,19.70
2018-06-29T06:11:10.639Z,19.80
2018-06-29T06:13:39.047Z,20.00
2018-06-29T06:16:07.592Z,20.00
2018-06-29T06:18:36.237Z,20.10
2018-06-29T06:21:04.655Z,20.30
2018-06-29T06:23:33.110Z,20.40
2018-06-29T06:26:01.492Z,20.50
2018-06-29T06:28:29.840Z,20.50
2018-06-29T06:30:58.280Z,20.50
2018-06-29T06:33:26.721Z,20.40
2018-06-29T06:35:58.997Z,20.30
2018-06-29T06:38:27.431Z,20.40
2018-06-29T06:40:55.889Z,20.30
2018-06-29T06:43:24.273Z,20.30
2018-06-29T06:45:52.729Z,20.50
2018-06-29T06:48:21.093Z,20.40
2018-06-29T06:50:49.495Z,20.30
2018-06-29T06:53:18.013Z,20.30
2018-06-29T06:55:46.333Z,20.30
2018-06-29T06:58:14.854Z,20.40
2018-06-29T07:00:43.263Z,20.50
2018-06-29T07:03:11.636Z,20.40
2018-06-29T07:05:40.109Z,20.20
2018-06-29T07:08:08.520Z,20.10
2018-06-29T07:10:36.881Z,20.20
2018-06-29T07:13:05.399Z,20.10
2018-06-29T07:15:33.691Z,20.10
2018-06-29T07:18:02.093Z,20.20
2018-06-29T07:20:30.490Z,20.30
2018-06-29T07:22:58.995Z,20.40
2018-06-29T07:25:27.411Z,20.60
2018-06-29T07:27:55.824Z,20.70
2018-06-29T07:30:24.292Z,20.70
2018-06-29T07:32:52.793Z,20.80
2018-06-29T07:35:21.722Z,21.00
2018-06-29T07:37:50.109Z,21.30
2018-06-29T07:40:18.671Z,21.40
2018-06-29T07:42:47.065Z,21.50
2018-06-29T07:45:15.524Z,21.70
2018-06-29T07:47:43.946Z,21.80
2018-06-29T07:50:12.414Z,21.80
2018-06-29T07:52:40.928Z,22.00
2018-06-29T07:55:09.435Z,22.10
2018-06-29T07:57:37.941Z,22.30
2018-06-29T08:00:06.544Z,22.40
2018-06-29T08:02:35.020Z,22.50
2018-06-29T08:05:03.423Z,22.60
2018-06-29T08:07:31.739Z,22.70
2018-06-29T08:10:00.227Z,22.70
2018-06-29T08:12:28.696Z,22.80
2018-06-29T08:14:57.077Z,22.90
2018-06-29T08:17:25.482Z,23.00
2018-06-29T08:19:53.873Z,23.10
2018-06-29T08:22:22.359Z,23.30
2018-06-29T08:25:02.059Z,23.40
2018-06-29T08:27:30.490Z,23.60
2018-06-29T08:29:58.941Z,23.70
2018-06-29T08:32:27.321Z,23.70
2018-06-29T08:34:55.649Z,23.80
2018-06-29T08:37:24.046Z,23.80
2018-06-29T08:39:52.564Z,23.70
2018-06-29T08:42:20.974Z,23.70
2018-06-29T08:44:49.405Z,23.70
2018-06-29T08:47:17.810Z,23.60
2018-06-29T08:49:46.263Z,23.60
2018-06-29T08:52:14.647Z,23.60
2018-06-29T08:54:43.047Z,23.50
2018-06-29T08:57:11.488Z,23.40
2018-06-29T08:59:39.945Z,23.70
2018-06-29T09:02:08.367Z,23.90
2018-06-29T09:04:36.873Z,23.90
2018-06-29T09:07:05.331Z,23.90
2018-06-29T09:09:33.773Z,23.80
2018-06-29T09:12:02.274Z,23.60
2018-06-29T09:14:30.672Z,23.60
2018-06-29T09:16:59.018Z,23.80
2018-06-29T09:19:27.394Z,24.20
2018-06-29T09:21:55.860Z,24.20
2018-06-29T09:24:24.275Z,24.30
2018-06-29T09:26:52.869Z,24.60
2018-06-29T09:29:21.961Z,24.70
2018-06-29T09:31:50.343Z,25.00
2018-06-29T09:34:18.700Z,25.10
2018-06-29T09:36:47.146Z,25.00
2018-06-29T09:39:15.547Z,24.90
2018-06-29T09:44:12.121Z,24.50
2018-06-29T09:46:40.540Z,24.70
2018-06-29T09:49:08.897Z,24.60
2018-06-29T09:51:37.489Z,24.60
2018-06-29T09:54:05.999Z,24.40
2018-06-29T09:56:34.436Z,24.80
2018-06-29T09:59:02.876Z,25.00
2018-06-29T10:01:37.748Z,25.20
2018-06-29T10:04:06.376Z,25.00
2018-06-29T10:06:34.786Z,25.20
2018-06-29T10:09:03.279Z,25.30
2018-06-29T10:11:31.721Z,25.40
2018-06-29T10:16:28.273Z,25.10
2018-06-29T10:18:56.727Z,25.10
2018-06-29T10:21:25.253Z,25.20
2018-06-29T10:23:53.601Z,25.30
2018-06-29T10:26:22.042Z,25.40
2018-06-29T10:28:50.497Z,25.40
2018-06-29T10:31:18.906Z,25.60
2018-06-29T10:33:47.355Z,25.70
2018-06-29T10:36:16.108Z,25.40
2018-06-29T10:38:44.533Z,25.40
2018-06-29T10:41:12.883Z,25.40
2018-06-29T10:43:41.276Z,25.60
2018-06-29T10:46:09.706Z,25.70
2018-06-29T10:48:38.177Z,26.00
2018-06-29T10:51:06.680Z,25.80
2018-06-29T10:53:35.165Z,25.70
2018-06-29T10:56:03.591Z,26.00
2018-06-29T10:58:32.072Z,26.30
2018-06-29T11:01:00.453Z,26.60
2018-06-29T11:03:28.802Z,26.70
2018-06-29T11:05:57.305Z,26.70
2018-06-29T11:08:25.680Z,26.50
2018-06-29T11:10:54.103Z,26.30
2018-06-29T11:13:22.551Z,26.30
2018-06-29T11:15:50.906Z,26.50
2018-06-29T11:18:19.398Z,26.60
2018-06-29T11:20:47.853Z,26.80
2018-06-29T11:23:16.311Z,26.90
2018-06-29T11:25:44.671Z,27.00
2018-06-29T11:28:13.057Z,27.00
2018-06-29T11:30:42.217Z,27.20
2018-06-29T11:33:10.692Z,27.20
2018-06-29T11:35:39.046Z,27.30
2018-06-29T11:38:07.518Z,27.50
2018-06-29T11:40:35.914Z,27.70
2018-06-29T11:43:04.819Z,27.90
2018-06-29T11:45:33.249Z,28.00
2018-06-29T11:48:01.554Z,28.20
2018-06-29T11:50:29.921Z,28.20
2018-06-29T11:52:58.384Z,28.40
2018-06-29T11:55:26.754Z,28.50
2018-06-29T11:57:55.147Z,28.70
2018-06-29T12:00:23.616Z,28.60
2018-06-29T12:02:52.391Z,28.60
2018-06-29T12:05:20.799Z,28.50
2018-06-29T12:07:49.415Z,28.30
2018-06-29T12:10:17.873Z,28.10
2018-06-29T12:12:46.237Z,28.10
2018-06-29T12:15:15.352Z,28.10
2018-06-29T12:17:43.877Z,28.10
2018-06-29T12:20:12.246Z,28.20
2018-06-29T12:22:40.698Z,28.10
2018-06-29T12:25:09.091Z,28.30
2018-06-29T12:27:37.553Z,28.40
2018-06-29T12:30:06.207Z,28.70
2018-06-29T12:32:34.632Z,28.60
2018-06-29T12:35:03.109Z,28.60
2018-06-29T12:37:31.549Z,28.60
2018-06-29T12:40:00.082Z,28.30
2018-06-29T12:42:28.696Z,28.20
2018-06-29T12:44:57.137Z,28.30
2018-06-29T12:47:25.597Z,28.50
2018-06-29T12:49:54.067Z,28.50
2018-06-29T12:52:22.570Z,28.80
2018-06-29T12:54:51.013Z,28.90
2018-06-29T12:57:19.521Z,29.20
2018-06-29T12:59:47.946Z,29.70
2018-06-29T13:02:16.376Z,30.00
2018-06-29T13:04:44.856Z,29.90
2018-06-29T13:07:13.310Z,30.00
2018-06-29T13:09:41.734Z,30.10
2018-06-29T13:12:10.102Z,29.80
2018-06-29T13:14:38.544Z,29.30
2018-06-29T13:17:07.116Z,29.20
2018-06-29T13:19:35.590Z,29.30
2018-06-29T13:22:04.046Z,29.40
2018-06-29T13:24:32.517Z,29.40
2018-06-29T13:27:00.889Z,29.50
2018-06-29T13:29:29.382Z,29.50
2018-06-29T13:31:57.804Z,29.80
2018-06-29T13:34:26.359Z,29.90
2018-06-29T13:36:54.816Z,29.30
2018-06-29T13:39:23.189Z,29.30
2018-06-29T13:41:51.630Z,29.50
2018-06-29T13:44:20.197Z,29.80
2018-06-29T13:46:48.583Z,29.80
2018-06-29T13:49:17.038Z,29.60
2018-06-29T13:51:45.463Z,29.50
2018-06-29T13:54:13.926Z,29.20
2018-06-29T13:56:42.419Z,29.10
2018-06-29T13:59:10.849Z,29.20
2018-06-29T14:01:39.246Z,29.40
2018-06-29T14:04:07.697Z,29.50
2018-06-29T14:06:36.100Z,29.40
2018-06-29T14:09:06.311Z,29.40
2018-06-29T14:11:34.673Z,29.40
2018-06-29T14:14:03.050Z,29.30
2018-06-29T14:16:31.523Z,29.40
2018-06-29T14:18:59.894Z,29.80
2018-06-29T14:21:28.309Z,29.90
2018-06-29T14:23:56.757Z,30.20
2018-06-29T14:26:25.169Z,30.40
2018-06-29T14:28:53.689Z,30.80
2018-06-29T14:31:22.095Z,31.10
2018-06-29T14:33:50.489Z,31.20
2018-06-29T14:36:18.878Z,31.20
2018-06-29T14:38:47.252Z,30.40
2018-06-29T14:41:16.283Z,30.00
2018-06-29T14:43:44.724Z,29.80
2018-06-29T14:46:13.093Z,29.60
2018-06-29T14:48:41.510Z,29.50
2018-06-29T14:51:09.904Z,29.10
2018-06-29T14:53:38.240Z,29.00
2018-06-29T14:56:13.630Z,28.70
2018-06-29T14:58:42.137Z,28.90
2018-06-29T15:01:10.586Z,29.40
2018-06-29T15:03:39.015Z,29.80
2018-06-29T15:06:07.431Z,30.20
2018-06-29T15:08:35.914Z,30.20
2018-06-29T15:11:04.292Z,30.20
2018-06-29T15:13:32.830Z,30.10
2018-06-29T15:16:01.270Z,29.90
2018-06-29T15:18:29.681Z,30.00
2018-06-29T15:20:58.247Z,30.10
2018-06-29T15:23:26.777Z,30.10
2018-06-29T15:25:55.453Z,30.00
2018-06-29T15:28:23.922Z,29.80
2018-06-29T15:30:52.275Z,29.40
2018-06-29T15:33:20.835Z,29.30
2018-06-29T15:38:24.085Z,29.30
2018-06-29T15:40:52.479Z,29.30
2018-06-29T15:43:20.926Z,29.30
2018-06-29T15:45:49.444Z,29.50
2018-06-29T15:48:17.826Z,29.70
2018-06-29T15:50:46.198Z,30.00
2018-06-29T15:53:14.579Z,30.30
2018-06-29T15:55:42.977Z,30.30
2018-06-29T15:58:11.450Z,30.20
2018-06-29T16:00:39.938Z,29.90
2018-06-29T16:03:08.291Z,29.70
2018-06-29T16:05:36.748Z,29.40
2018-06-29T16:08:05.415Z,29.10
2018-06-29T16:10:33.900Z,28.70
2018-06-29T16:13:02.414Z,28.50
2018-06-29T16:15:30.958Z,28.20
2018-06-29T16:17:59.314Z,28.20
2018-06-29T16:20:27.678Z,28.20
2018-06-29T16:22:56.142Z,28.20
2018-06-29T16:25:24.593Z,28.10
2018-06-29T16:27:52.902Z,28.20
2018-06-29T16:30:21.392Z,28.20
2018-06-29T16:32:49.716Z,28.10
2018-06-29T16:35:18.148Z,27.90
2018-06-29T16:37:46.571Z,27.80
2018-06-29T16:40:15.013Z,27.70
2018-06-29T16:42:43.499Z,27.50
2018-06-29T16:45:11.894Z,27.40
2018-06-29T16:47:40.413Z,27.30
2018-06-29T16:50:08.913Z,27.00
2018-06-29T16:52:37.394Z,26.90
2018-06-29T16:55:06.191Z,26.80
2018-06-29T16:57:34.637Z,26.60
2018-06-29T17:00:03.119Z,26.60
2018-06-29T17:02:31.554Z,26.50
2018-06-29T17:04:59.993Z,26.40
2018-06-29T17:07:28.355Z,26.50
2018-06-29T17:09:56.781Z,26.50
2018-06-29T17:12:25.231Z,26.50
2018-06-29T17:14:53.658Z,26.50
2018-06-29T17:17:22.044Z,26.50
2018-06-29T17:19:50.439Z,26.60
2018-06-29T17:22:18.848Z,26.70
2018-06-29T17:24:47.395Z,26.70
2018-06-29T17:27:15.775Z,26.70
2018-06-29T17:29:44.129Z,26.70
2018-06-29T17:32:12.542Z,26.70
2018-06-29T17:34:41.035Z,26.80
2018-06-29T17:37:09.561Z,26.80
2018-06-29T17:39:37.904Z,26.80
2018-06-29T17:42:06.509Z,26.80
2018-06-29T17:44:34.900Z,26.80
2018-06-29T17:47:03.345Z,26.80
2018-06-29T17:49:31.815Z,26.70
2018-06-29T17:52:00.267Z,26.70
2018-06-29T17:54:28.710Z,26.70
2018-06-29T17:56:57.407Z,26.80
2018-06-29T17:59:25.878Z,26.80
2018-06-29T18:01:54.325Z,26.90
2018-06-29T18:04:22.823Z,27.10
2018-06-29T18:06:51.129Z,27.10
2018-06-29T18:11:47.684Z,27.10
2018-06-29T18:14:16.195Z,27.10
2018-06-29T18:16:44.659Z,27.10
2018-06-29T18:19:13.119Z,27.00
2018-06-29T18:21:41.557Z,26.90
2018-06-29T18:24:10.004Z,26.80
2018-06-29T18:26:38.437Z,26.80
2018-06-29T18:29:06.915Z,26.60
2018-06-29T18:31:35.324Z,26.60
2018-06-29T18:34:03.682Z,26.70
2018-06-29T18:36:32.093Z,26.80
2018-06-29T18:39:00.438Z,26.90
2018-06-29T18:41:29.096Z,26.90
2018-06-29T18:43:57.425Z,26.80
2018-06-29T18:46:25.815Z,26.70
2018-06-29T18:48:54.361Z,26.60
2018-06-29T18:51:22.746Z,26.60
2018-06-29T18:53:51.187Z,26.40
2018-06-29T18:56:19.576Z,26.40
2018-06-29T18:58:48.061Z,26.30
2018-06-29T19:01:16.447Z,26.20
2018-06-29T19:03:45.196Z,26.20
2018-06-29T19:06:13.701Z,26.00
2018-06-29T19:08:42.122Z,25.90
2018-06-29T19:11:10.557Z,25.70
2018-06-29T19:13:38.895Z,25.70
2018-06-29T19:16:07.272Z,25.60
2018-06-29T19:18:35.781Z,25.60
2018-06-29T19:21:04.069Z,25.50
2018-06-29T19:23:32.382Z,25.30
2018-06-29T19:26:00.748Z,25.20
2018-06-29T19:28:29.170Z,25.10
2018-06-29T19:30:57.603Z,25.00
2018-06-29T19:33:26.272Z,25.00
2018-06-29T19:36:01.430Z,24.90
2018-06-29T19:38:29.850Z,24.70
2018-06-29T19:40:58.295Z,24.60
2018-06-29T19:43:26.728Z,24.50
2018-06-29T19:45:55.385Z,24.30
2018-06-29T19:48:23.810Z,24.20
2018-06-29T19:50:52.254Z,24.10
2018-06-29T19:53:20.723Z,23.90
2018-06-29T19:55:49.116Z,23.80
2018-06-29T19:58:17.560Z,23.70
2018-06-29T20:00:45.939Z,23.50
2018-06-29T20:03:14.354Z,23.40
2018-06-29T20:05:42.744Z,23.40
2018-06-29T20:08:11.204Z,23.40
2018-06-29T20:10:39.699Z,23.40
2018-06-29T20:13:08.183Z,23.30
2018-06-29T20:15:36.581Z,23.20
2018-06-29T20:18:05.029Z,23.10
2018-06-29T20:20:33.432Z,23.10
2018-06-29T20:23:01.892Z,23.00
2018-06-29T20:25:30.337Z,22.80
2018-06-29T20:27:58.685Z,22.70
2018-06-29T20:30:27.211Z,22.70
2018-06-29T20:32:55.652Z,22.50
2018-06-29T20:35:24.223Z,22.40
2018-06-29T20:37:52.916Z,22.50
2018-06-29T20:40:21.490Z,22.30
2018-06-29T20:42:49.929Z,22.20
2018-06-29T20:45:18.430Z,22.10
2018-06-29T20:47:46.901Z,22.00
2018-06-29T20:50:15.233Z,21.90
2018-06-29T20:52:44.400Z,22.00
2018-06-29T20:55:12.886Z,22.00
2018-06-29T20:57:41.380Z,21.90
2018-06-29T21:00:09.927Z,21.80
2018-06-29T21:02:38.464Z,21.70
2018-06-29T21:05:06.793Z,21.60
2018-06-29T21:07:35.092Z,21.60
2018-06-29T21:10:03.597Z,21.50
2018-06-29T21:12:32.080Z,21.30
2018-06-29T21:15:00.388Z,21.30
2018-06-29T21:17:28.765Z,21.20
2018-06-29T21:19:57.175Z,21.20
2018-06-29T21:22:25.621Z,21.20
2018-06-29T21:24:54.119Z,21.20
2018-06-29T21:27:22.548Z,21.10
2018-06-29T21:29:50.933Z,21.20
2018-06-29T21:32:19.303Z,21.10
2018-06-29T21:34:47.675Z,21.00
2018-06-29T21:37:16.171Z,20.90
2018-06-29T21:39:44.670Z,20.80
2018-06-29T21:42:13.076Z,20.70
2018-06-29T21:44:41.509Z,20.70
2018-06-29T21:47:09.968Z,20.60
2018-06-29T21:49:38.340Z,20.60
2018-06-29T21:52:06.671Z,20.50
2018-06-29T21:54:35.203Z,20.50
2018-06-29T21:57:03.629Z,20.40
2018-06-29T21:59:32.188Z,20.30
2018-06-29T22:02:00.546Z,20.20
2018-06-29T22:04:28.929Z,20.30
2018-06-29T22:06:57.830Z,20.20
2018-06-29T22:09:26.181Z,20.10
2018-06-29T22:11:54.676Z,20.10
2018-06-29T22:14:23.061Z,20.10
2018-06-29T22:16:51.841Z,20.10
2018-06-29T22:19:20.194Z,20.00
2018-06-29T22:21:48.696Z,20.00
2018-06-29T22:24:17.143Z,20.00
2018-06-29T22:26:45.619Z,19.90
2018-06-29T22:29:14.517Z,19.90
2018-06-29T22:31:42.975Z,19.80
2018-06-29T22:34:11.389Z,19.80
2018-06-29T22:36:39.885Z,19.70
2018-06-29T22:39:10.051Z,19.70
2018-06-29T22:41:38.844Z,19.60
2018-06-29T22:44:07.175Z,19.50
2018-06-29T22:46:36.167Z,19.50
2018-06-29T22:49:04.613Z,19.50
2018-06-29T22:51:33.150Z,19.40
2018-06-29T22:54:01.597Z,19.40
2018-06-29T22:56:30.114Z,19.50
2018-06-29T22:58:58.604Z,19.50
2018-06-29T23:01:26.912Z,19.50
2018-06-29T23:03:56.172Z,19.40
2018-06-29T23:06:25.859Z,19.30
2018-06-29T23:08:54.493Z,19.40
2018-06-29T23:11:22.816Z,19.30
2018-06-29T23:13:51.334Z,19.20
2018-06-29T23:16:19.724Z,19.20
2018-06-29T23:18:48.179Z,19.10
2018-06-29T23:21:16.606Z,19.10
2018-06-29T23:23:45.050Z,19.00
2018-06-29T23:26:13.413Z,19.00
2018-06-29T23:28:41.822Z,18.90
2018-06-29T23:31:10.150Z,19.00
2018-06-29T23:33:38.446Z,18.80
2018-06-29T23:36:06.961Z,18.80
2018-06-29T23:38:35.302Z,18.90
2018-06-29T23:41:03.764Z,18.80
2018-06-29T23:43:32.196Z,18.70
2018-06-29T23:46:00.707Z,18.80
2018-06-29T23:48:29.090Z,18.80
2018-06-29T23:50:57.495Z,18.80
2018-06-29T23:53:25.906Z,18.70
2018-06-29T23:55:54.235Z,18.80
2018-06-29T23:58:22.698Z,18.70
